Time;durP1;ratioP1;P1;durP2;ratioP2;P2;SDS_P1;SDS_P2;PMS_P1;PMS_P2;Temp;Humidity;BMP_temperature;BMP_pressure;BME280_temperature;BME280_humidity;BME280_pressure;Samples;Min_cycle;Max_cycle;Signal;HPM_P1;HPM_P2
2022/02/21 00:00:18;;;;;;;1.30;0.17;;;;;;;9.04;98.65;97998.13;5019572;28;20055;-84
2022/02/21 00:02:49;;;;;;;0.20;0.17;;;;;;;9.08;97.99;97970.13;5034492;28;20055;-85
2022/02/21 00:05:17;;;;;;;1.95;0.13;;;;;;;9.13;97.99;97993.41;5031581;28;20053;-87
2022/02/21 00:07:45;;;;;;;0.82;0.13;;;;;;;9.20;96.91;97990.41;5020626;28;20170;-85
2022/02/21 00:10:13;;;;;;;2.03;0.43;;;;;;;9.15;100.00;98075.94;5028170;28;20056;-85
2022/02/21 00:12:41;;;;;;;2.65;0.60;;;;;;;8.20;100.00;98198.94;5038151;28;20053;-85
2022/02/21 00:15:09;;;;;;;1.38;0.10;;;;;;;7.05;100.00;98219.56;5020066;28;20093;-85
2022/02/21 00:17:36;;;;;;;2.42;0.43;;;;;;;6.27;100.00;98215.97;5016264;28;20053;-85
2022/02/21 00:20:03;;;;;;;1.10;0.47;;;;;;;5.64;100.00;98197.88;5035565;28;20056;-86
2022/02/21 00:22:30;;;;;;;2.38;0.22;;;;;;;5.37;100.00;98235.81;5032983;28;20045;-87
2022/02/21 00:24:57;;;;;;;2.17;0.10;;;;;;;5.14;100.00;98253.69;5027200;28;20045;-85
2022/02/21 00:27:23;;;;;;;0.80;0.30;;;;;;;5.11;100.00;98273.66;5017450;28;20053;-86
2022/02/21 00:29:50;;;;;;;0.50;0.20;;;;;;;4.96;100.00;98288.72;5019077;28;20041;-85
2022/02/21 00:32:17;;;;;;;0.28;0.13;;;;;;;4.83;100.00;98302.03;5035480;28;20793;-85
2022/02/21 00:34:43;;;;;;;0.10;0.10;;;;;;;4.76;100.00;98280.59;5022455;28;20052;-86
2022/02/21 00:37:10;;;;;;;0.10;0.10;;;;;;;4.71;100.00;98278.09;5015587;28;20506;-83
2022/02/21 00:39:36;;;;;;;2.25;0.22;;;;;;;4.68;100.00;98278.16;5026942;28;20041;-85
2022/02/21 00:42:05;;;;;;;0.10;0.10;;;;;;;4.67;100.00;98271.28;5033845;28;20040;-87
2022/02/21 00:44:31;;;;;;;0.28;0.10;;;;;;;4.61;100.00;98274.84;5039595;28;20792;-86
2022/02/21 00:47:00;;;;;;;0.38;0.20;;;;;;;4.61;100.00;98284.38;5020302;28;20049;-87
2022/02/21 00:49:27;;;;;;;0.40;0.10;;;;;;;4.58;100.00;98267.16;5028717;28;20044;-87
2022/02/21 00:51:54;;;;;;;1.52;0.17;;;;;;;4.63;100.00;98264.47;5036594;28;20059;-87
2022/02/21 00:54:20;;;;;;;0.10;0.10;;;;;;;4.63;100.00;98287.78;5017130;28;20037;-87
2022/02/21 00:56:47;;;;;;;0.47;0.35;;;;;;;4.69;100.00;98297.16;5013095;28;20150;-86
2022/02/21 00:59:13;;;;;;;1.02;0.10;;;;;;;4.76;100.00;98325.47;5020780;28;20056;-84
2022/02/21 01:01:40;;;;;;;0.90;0.20;;;;;;;4.83;100.00;98333.97;5032488;28;20041;-84
2022/02/21 01:04:06;;;;;;;0.50;0.15;;;;;;;4.83;100.00;98326.19;5022841;28;20055;-86
2022/02/21 01:06:33;;;;;;;0.28;0.28;;;;;;;4.87;100.00;98314.84;5037116;28;20111;-84
2022/02/21 01:08:59;;;;;;;0.75;0.20;;;;;;;4.86;100.00;98323.50;5033399;28;20063;-85
2022/02/21 01:11:30;;;;;;;1.35;0.15;;;;;;;4.88;100.00;98332.13;5035317;28;20044;-85
2022/02/21 01:13:58;;;;;;;3.05;0.95;;;;;;;4.88;100.00;98321.75;5028968;28;20061;-84
2022/02/21 01:16:24;;;;;;;1.88;0.28;;;;;;;4.89;100.00;98338.16;5007608;28;20067;-84
2022/02/21 01:18:52;;;;;;;0.10;0.10;;;;;;;4.89;100.00;98338.16;5035592;28;20053;-88
2022/02/21 01:21:19;;;;;;;0.30;0.20;;;;;;;4.90;100.00;98334.66;4994319;28;20049;-86
2022/02/21 01:23:45;;;;;;;0.55;0.38;;;;;;;4.91;100.00;98331.19;5035585;28;20036;-85
2022/02/21 01:26:12;;;;;;;0.15;0.03;;;;;;;4.92;100.00;98336.34;5018926;28;20048;-86
2022/02/21 01:28:39;;;;;;;1.63;0.22;;;;;;;4.98;100.00;98366.47;5014203;28;20055;-84
2022/02/21 01:31:05;;;;;;;0.10;0.10;;;;;;;5.04;100.00;98355.94;5017400;28;20052;-86
2022/02/21 01:33:32;;;;;;;0.47;0.28;;;;;;;5.07;100.00;98361.06;5028591;28;20037;-88
2022/02/21 01:35:58;;;;;;;0.03;0.03;;;;;;;5.13;100.00;98360.91;5033223;28;20044;-85
2022/02/21 01:38:25;;;;;;;0.85;0.10;;;;;;;5.16;100.00;98336.63;5023161;28;20554;-85
2022/02/21 01:40:52;;;;;;;1.58;0.40;;;;;;;5.21;100.00;98349.50;5028643;28;20285;-85
2022/02/21 01:43:19;;;;;;;1.55;0.30;;;;;;;5.26;100.00;98309.59;5032764;28;20063;-84
2022/02/21 01:45:45;;;;;;;0.90;0.10;;;;;;;5.29;100.00;98369.19;5024633;28;20048;-87
2022/02/21 01:48:12;;;;;;;0.50;0.22;;;;;;;5.33;100.00;98325.84;5011514;28;20644;-86
2022/02/21 01:50:38;;;;;;;1.42;0.20;;;;;;;5.45;100.00;98377.44;5035686;28;20512;-84
2022/02/21 01:53:05;;;;;;;0.20;0.20;;;;;;;5.45;100.00;98389.59;5012595;28;20045;-85
2022/02/21 01:55:31;;;;;;;0.45;0.10;;;;;;;5.33;100.00;98367.34;5018201;28;20067;-86
2022/02/21 01:57:58;;;;;;;0.20;0.20;;;;;;;5.28;100.00;98400.38;5018521;28;20048;-87
2022/02/21 02:00:25;;;;;;;0.85;0.20;;;;;;;5.24;100.00;98390.94;5018210;28;20068;-87
2022/02/21 02:02:51;;;;;;;0.90;0.13;;;;;;;5.25;100.00;98397.81;5018624;28;20044;-86
2022/02/21 02:05:18;;;;;;;0.00;0.00;;;;;;;5.26;100.00;98400.38;5034778;28;20045;-86
2022/02/21 02:07:45;;;;;;;0.88;0.10;;;;;;;5.33;100.00;98411.47;5027842;28;20048;-86
2022/02/21 02:10:13;;;;;;;1.60;0.10;;;;;;;5.34;100.00;98423.53;5034693;28;20059;-84
2022/02/21 02:12:41;;;;;;;0.45;0.13;;;;;;;5.34;100.00;98423.53;5032173;28;20056;-84
2022/02/21 02:15:16;;;;;;;1.65;0.20;;;;;;;5.34;100.00;98413.16;5018101;28;20504;-86
2022/02/21 02:17:44;;;;;;;1.58;1.48;;;;;;;5.32;100.00;98455.59;5016361;28;20052;-87
2022/02/21 02:20:13;;;;;;;1.88;0.20;;;;;;;5.08;100.00;98453.53;5025158;28;20045;-86
2022/02/21 02:22:42;;;;;;;0.90;0.82;;;;;;;4.83;100.00;98468.75;5018344;28;20044;-87
2022/02/21 02:25:09;;;;;;;4.57;0.88;;;;;;;4.62;100.00;98454.50;5026340;28;20062;-86
2022/02/21 02:27:35;;;;;;;1.83;1.55;;;;;;;4.49;100.00;98468.59;5014506;28;20349;-85
2022/02/21 02:30:03;;;;;;;3.85;2.08;;;;;;;4.37;100.00;98485.19;5018862;28;20040;-86
2022/02/21 02:32:30;;;;;;;2.38;0.35;;;;;;;4.32;100.00;98480.13;5012301;28;20052;-85
2022/02/21 02:34:57;;;;;;;1.38;0.35;;;;;;;4.28;100.00;98475.88;5018645;28;20055;-86
2022/02/21 02:37:26;;;;;;;2.42;0.40;;;;;;;4.19;100.00;98476.91;5039604;28;20043;-86
2022/02/21 02:39:53;;;;;;;2.20;0.43;;;;;;;4.12;100.00;98473.56;5011236;28;20055;-86
2022/02/21 02:42:19;;;;;;;3.03;0.40;;;;;;;4.08;100.00;98478.81;5017462;28;20047;-86
2022/02/21 02:44:46;;;;;;;3.30;0.40;;;;;;;4.04;100.00;98483.22;5018877;28;20048;-86
2022/02/21 02:47:14;;;;;;;2.47;0.43;;;;;;;4.01;100.00;98488.44;5014447;28;20052;-86
2022/02/21 02:49:42;;;;;;;5.40;0.77;;;;;;;4.05;100.00;98468.53;5020042;28;20044;-85
2022/02/21 02:52:10;;;;;;;7.22;1.10;;;;;;;4.02;100.00;98484.97;5044118;28;20052;-86
2022/02/21 02:54:37;;;;;;;4.53;0.98;;;;;;;4.09;100.00;98481.41;5013456;28;20481;-86
2022/02/21 02:57:03;;;;;;;2.95;0.50;;;;;;;4.21;100.00;98503.66;5031538;28;20068;-86
2022/02/21 02:59:30;;;;;;;6.32;2.25;;;;;;;4.30;100.00;98565.63;5012647;28;20058;-86
2022/02/21 03:01:57;;;;;;;1.05;0.65;;;;;;;4.07;100.00;98541.88;5020964;28;20110;-86
2022/02/21 03:04:23;;;;;;;0.65;0.30;;;;;;;3.56;100.00;98558.16;5020587;28;20048;-87
2022/02/21 03:06:50;;;;;;;0.60;0.10;;;;;;;3.21;100.00;98567.28;5033467;28;20546;-86
2022/02/21 03:09:17;;;;;;;1.38;0.10;;;;;;;2.89;100.00;98569.34;5023330;28;20048;-86
2022/02/21 03:11:43;;;;;;;2.55;0.50;;;;;;;2.66;100.00;98548.94;5032102;28;20041;-87
2022/02/21 03:14:10;;;;;;;1.67;0.45;;;;;;;2.54;100.00;98524.06;5023154;28;20049;-86
2022/02/21 03:16:37;;;;;;;1.83;0.17;;;;;;;2.57;100.00;98561.94;5030124;28;20072;-85
2022/02/21 03:19:03;;;;;;;3.80;1.48;;;;;;;2.60;100.00;98536.94;5019606;28;20045;-86
2022/02/21 03:21:30;;;;;;;4.20;0.80;;;;;;;2.64;100.00;98550.69;5036937;28;20056;-86
2022/02/21 03:23:56;;;;;;;5.72;0.60;;;;;;;2.62;100.00;98553.28;5022770;28;20048;-86
2022/02/21 03:26:23;;;;;;;2.75;0.75;;;;;;;2.65;100.00;98553.25;5016762;28;20090;-86
2022/02/21 03:28:49;;;;;;;3.30;1.05;;;;;;;2.68;100.00;98562.69;5020760;28;20056;-86
2022/02/21 03:31:16;;;;;;;10.35;1.75;;;;;;;2.68;100.00;98562.69;5013734;28;20146;-86
2022/02/21 03:33:43;;;;;;;12.98;1.67;;;;;;;2.75;100.00;98563.47;5032786;28;20422;-86
2022/02/21 03:36:10;;;;;;;8.43;1.05;;;;;;;2.77;100.00;98572.91;5027541;28;20060;-86
2022/02/21 03:38:37;;;;;;;9.38;1.63;;;;;;;2.82;100.00;98562.56;5038367;28;20262;-86
2022/02/21 03:41:03;;;;;;;5.18;1.30;;;;;;;2.87;100.00;98565.94;5023330;28;20059;-86
2022/02/21 03:43:30;;;;;;;5.38;1.23;;;;;;;2.97;100.00;98585.63;5016097;28;20418;-86
2022/02/21 03:45:56;;;;;;;6.38;1.13;;;;;;;3.00;100.00;98582.16;5034544;28;20046;-86
2022/02/21 03:48:23;;;;;;;9.75;3.35;;;;;;;3.02;100.00;98567.47;5018119;28;20052;-86
2022/02/21 03:50:50;;;;;;;7.80;2.03;;;;;;;3.04;100.00;98570.91;5017231;28;20659;-85
2022/02/21 03:53:16;;;;;;;5.22;1.50;;;;;;;3.07;100.00;98575.19;5031033;28;20048;-85
2022/02/21 03:55:42;;;;;;;14.98;2.58;;;;;;;3.07;100.00;98588.09;5029102;28;20514;-86
2022/02/21 03:58:09;;;;;;;6.03;2.22;;;;;;;3.13;100.00;98575.13;5015892;28;20056;-86
2022/02/21 04:00:35;;;;;;;10.43;1.48;;;;;;;3.18;100.00;98585.38;5036452;28;20044;-85
2022/02/21 04:03:02;;;;;;;9.05;1.98;;;;;;;3.23;98.63;98575.84;5010782;28;20048;-85
2022/02/21 04:05:28;;;;;;;6.57;1.30;;;;;;;3.28;96.11;98586.97;5031948;28;20045;-86
2022/02/21 04:07:55;;;;;;;6.28;1.13;;;;;;;3.29;94.22;98584.38;5016142;28;20730;-85
2022/02/21 04:10:22;;;;;;;12.00;1.30;;;;;;;3.25;93.40;98587.88;5013302;28;20057;-85
2022/02/21 04:12:48;;;;;;;10.88;2.53;;;;;;;3.25;94.14;98595.63;5011291;28;20063;-85
2022/02/21 04:15:15;;;;;;;12.20;1.83;;;;;;;3.20;94.89;98601.75;5026998;28;20115;-86
2022/02/21 04:17:53;;;;;;;9.93;1.58;;;;;;;3.18;96.63;98601.78;5030559;28;20067;-85
2022/02/21 04:20:26;;;;;;;8.48;3.08;;;;;;;3.20;97.35;98612.09;5031434;28;20059;-85
2022/02/21 04:22:53;;;;;;;5.43;1.35;;;;;;;3.23;96.20;98584.44;5025016;28;20048;-86
2022/02/21 04:25:19;;;;;;;14.40;1.65;;;;;;;3.30;93.77;98601.59;5015895;28;20424;-85
2022/02/21 04:27:49;;;;;;;15.73;3.97;;;;;;;3.30;95.45;98614.53;5025058;28;20055;-86
2022/02/21 04:30:20;;;;;;;5.97;1.58;;;;;;;3.21;96.37;98627.59;5015478;28;20044;-85
2022/02/21 04:32:48;;;;;;;6.75;2.17;;;;;;;3.21;93.16;98625.00;5032308;28;20053;-86
2022/02/21 04:35:17;;;;;;;8.30;1.90;;;;;;;3.22;92.32;98628.44;5007368;28;20036;-85
2022/02/21 04:37:45;;;;;;;4.57;1.20;;;;;;;3.12;92.37;98625.94;5021164;28;20049;-84
2022/02/21 04:40:16;;;;;;;16.40;2.72;;;;;;;3.09;92.20;98649.25;5010861;28;20114;-85
2022/02/21 04:42:43;;;;;;;9.80;3.17;;;;;;;3.07;89.76;98637.22;5027472;28;20056;-86
2022/02/21 04:45:10;;;;;;;15.25;3.67;;;;;;;3.09;90.12;98645.81;5029531;28;20499;-85
2022/02/21 04:47:37;;;;;;;11.23;3.53;;;;;;;3.10;88.02;98648.41;5023178;28;20415;-85
2022/02/21 04:50:06;;;;;;;8.43;2.03;;;;;;;3.13;87.97;98652.69;5012844;28;20078;-85
2022/02/21 04:52:33;;;;;;;5.13;1.60;;;;;;;3.16;88.22;98651.78;5028754;28;20079;-85
2022/02/21 04:54:59;;;;;;;10.05;1.50;;;;;;;3.20;87.83;98636.22;5008284;28;20051;-85
2022/02/21 04:57:25;;;;;;;12.25;2.60;;;;;;;3.28;87.07;98649.88;5013051;28;20398;-85
2022/02/21 04:59:52;;;;;;;5.28;1.60;;;;;;;3.33;85.28;98660.19;5027462;28;20051;-85
2022/02/21 05:02:19;;;;;;;10.65;1.85;;;;;;;3.38;82.05;98652.41;5018166;28;20052;-86
2022/02/21 05:04:45;;;;;;;11.25;1.83;;;;;;;3.36;80.58;98664.47;5032674;28;20045;-86
2022/02/21 05:07:12;;;;;;;5.03;0.82;;;;;;;3.27;80.26;98670.59;5009586;28;20056;-85
2022/02/21 05:09:38;;;;;;;5.40;1.20;;;;;;;3.20;80.95;98690.50;5026270;28;20399;-86
2022/02/21 05:12:05;;;;;;;1.20;0.75;;;;;;;3.19;80.57;98685.34;5029078;28;20332;-85
2022/02/21 05:14:32;;;;;;;5.65;1.08;;;;;;;3.17;81.50;98697.44;5024541;28;20051;-86
2022/02/21 05:16:58;;;;;;;4.07;0.80;;;;;;;3.17;84.66;98721.56;5016075;28;20412;-85
2022/02/21 05:19:25;;;;;;;5.32;1.15;;;;;;;3.04;85.97;98736.34;5011375;28;20065;-85
2022/02/21 05:21:51;;;;;;;3.40;0.90;;;;;;;2.93;88.97;98643.41;5013235;28;20056;-85
2022/02/21 05:24:18;;;;;;;6.40;1.35;;;;;;;2.80;92.32;98730.53;5012197;28;20609;-86
2022/02/21 05:26:44;;;;;;;10.77;1.10;;;;;;;2.56;95.47;98744.47;5021699;28;20926;-86
2022/02/21 05:29:11;;;;;;;6.90;1.23;;;;;;;2.34;98.96;98756.69;5012445;28;20049;-86
2022/02/21 05:31:37;;;;;;;4.38;1.05;;;;;;;2.26;99.80;98735.22;5008755;28;20060;-86
2022/02/21 05:34:04;;;;;;;6.28;1.45;;;;;;;2.21;100.00;98749.88;5014093;28;20052;-85
2022/02/21 05:36:30;;;;;;;11.75;3.15;;;;;;;2.15;100.00;98730.97;5029985;28;20052;-85
2022/02/21 05:38:57;;;;;;;4.60;1.27;;;;;;;2.10;100.00;98729.28;5010010;28;20052;-85
2022/02/21 05:41:23;;;;;;;6.10;1.67;;;;;;;2.00;100.00;98727.63;5029190;28;20064;-85
2022/02/21 05:43:50;;;;;;;8.40;1.63;;;;;;;1.93;100.00;98729.38;5018573;28;20044;-86
2022/02/21 05:46:16;;;;;;;7.68;1.58;;;;;;;1.81;100.00;98733.75;5008348;28;20063;-85
2022/02/21 05:48:43;;;;;;;9.80;2.03;;;;;;;1.76;100.00;98732.91;5019725;28;20059;-85
2022/02/21 05:51:09;;;;;;;7.95;1.25;;;;;;;1.71;100.00;98754.41;5011606;28;20691;-85
2022/02/21 05:53:36;;;;;;;2.03;0.65;;;;;;;1.68;100.00;98752.69;5007446;28;20517;-85
2022/02/21 05:56:03;;;;;;;5.63;2.95;;;;;;;1.72;100.00;98754.41;5004551;28;20097;-85
2022/02/21 05:58:29;;;;;;;5.43;1.70;;;;;;;1.80;100.00;98767.28;5002378;28;20064;-85
2022/02/21 06:00:55;;;;;;;6.53;0.90;;;;;;;1.87;100.00;98770.69;5021868;28;20362;-86
2022/02/21 06:03:22;;;;;;;3.38;1.35;;;;;;;1.86;100.00;98750.91;5010267;28;20049;-86
2022/02/21 06:05:48;;;;;;;1.60;1.45;;;;;;;1.76;100.00;98756.13;5021112;28;20044;-85
2022/02/21 06:08:15;;;;;;;6.85;1.42;;;;;;;1.68;100.00;98755.28;5010459;28;20057;-85
2022/02/21 06:10:42;;;;;;;6.38;1.58;;;;;;;1.62;100.00;98748.44;5005682;28;20055;-86
2022/02/21 06:13:08;;;;;;;6.93;0.98;;;;;;;1.57;100.00;98755.31;5024356;28;20159;-85
2022/02/21 06:15:35;;;;;;;4.78;0.90;;;;;;;1.58;100.00;98758.78;5026706;28;20047;-83
2022/02/21 06:18:01;;;;;;;7.53;1.45;;;;;;;1.64;100.00;98758.72;5023791;28;20068;-86
2022/02/21 06:20:28;;;;;;;7.88;0.82;;;;;;;1.79;100.00;98779.31;5029058;28;20045;-84
2022/02/21 06:22:56;;;;;;;6.03;1.88;;;;;;;1.98;99.27;98766.34;5015615;28;20052;-86
2022/02/21 06:25:22;;;;;;;4.30;1.20;;;;;;;2.13;97.57;98773.16;5004651;28;20056;-86
2022/02/21 06:27:49;;;;;;;7.03;1.33;;;;;;;2.21;95.80;98771.38;5011590;28;20048;-86
2022/02/21 06:30:16;;;;;;;7.13;1.20;;;;;;;2.18;95.46;98767.94;5004424;28;20091;-86
2022/02/21 06:32:42;;;;;;;4.40;1.50;;;;;;;2.09;95.68;98766.31;5025022;28;20703;-85
2022/02/21 06:35:10;;;;;;;6.70;1.58;;;;;;;2.02;93.97;98764.59;5026839;28;20045;-85
2022/02/21 06:37:49;;;;;;;4.20;1.42;;;;;;;2.04;92.66;98755.13;5022682;28;20055;-85
2022/02/21 06:40:16;;;;;;;6.93;1.70;;;;;;;2.04;92.92;98775.78;5009197;28;20441;-85
2022/02/21 06:42:43;;;;;;;7.45;1.20;;;;;;;1.98;93.26;98776.66;5012924;28;20056;-86
2022/02/21 06:45:09;;;;;;;9.27;1.10;;;;;;;1.95;93.23;98774.09;5028420;28;20222;-85
2022/02/21 06:47:36;;;;;;;10.32;2.40;;;;;;;1.97;92.28;98770.66;5012095;28;20052;-83
2022/02/21 06:50:04;;;;;;;5.55;1.30;;;;;;;1.96;92.20;98778.41;5022063;28;20080;-84
2022/02/21 06:52:32;;;;;;;8.50;2.47;;;;;;;2.00;92.40;98768.94;5027745;28;20052;-84
2022/02/21 06:54:59;;;;;;;5.22;1.63;;;;;;;2.01;92.07;98779.25;5012655;28;20045;-84
2022/02/21 06:57:27;;;;;;;4.20;1.80;;;;;;;1.99;93.40;98791.28;5012442;28;20056;-84
2022/02/21 06:59:55;;;;;;;7.03;2.22;;;;;;;1.96;94.17;98791.31;5015667;28;20053;-84
2022/02/21 07:02:22;;;;;;;5.78;1.33;;;;;;;1.98;94.07;98792.13;5021390;28;20045;-84
2022/02/21 07:04:48;;;;;;;7.97;2.53;;;;;;;1.99;93.99;98773.22;5013806;28;20112;-84
2022/02/21 07:07:15;;;;;;;5.93;1.20;;;;;;;2.01;94.18;98775.78;5016462;28;20560;-84
2022/02/21 07:09:42;;;;;;;7.80;2.00;;;;;;;2.06;92.22;98786.94;5016267;28;20052;-85
2022/02/21 07:12:09;;;;;;;9.68;1.60;;;;;;;2.15;91.26;98784.31;5026442;28;20094;-85
2022/02/21 07:14:35;;;;;;;5.97;2.20;;;;;;;2.27;88.46;98786.00;5011310;28;20049;-85
2022/02/21 07:17:02;;;;;;;13.45;2.28;;;;;;;2.34;88.71;98792.84;5017011;28;20053;-85
2022/02/21 07:19:28;;;;;;;5.50;1.60;;;;;;;2.33;89.16;98806.59;5027159;28;20119;-85
2022/02/21 07:21:55;;;;;;;11.50;2.22;;;;;;;2.39;88.49;98791.09;5025335;28;20044;-84
2022/02/21 07:24:21;;;;;;;14.52;2.83;;;;;;;2.55;85.05;98788.41;5026547;28;20405;-85
2022/02/21 07:26:48;;;;;;;12.23;2.45;;;;;;;2.59;84.67;98785.78;5015483;28;20044;-85
2022/02/21 07:29:15;;;;;;;7.22;1.42;;;;;;;2.63;85.13;98794.38;5021666;28;20045;-84
2022/02/21 07:31:41;;;;;;;10.32;1.40;;;;;;;2.62;84.41;98796.13;5012675;28;20067;-85
2022/02/21 07:34:08;;;;;;;11.10;2.35;;;;;;;2.64;83.72;98794.34;5021151;28;20307;-84
2022/02/21 07:36:35;;;;;;;10.15;2.92;;;;;;;2.60;84.62;98802.16;5026078;28;20909;-85
2022/02/21 07:39:02;;;;;;;13.20;2.03;;;;;;;2.62;84.55;98800.41;5028113;28;20059;-84
2022/02/21 07:41:29;;;;;;;4.30;1.58;;;;;;;2.64;84.22;98788.34;5009481;28;20045;-84
2022/02/21 07:43:56;;;;;;;8.32;1.25;;;;;;;2.67;82.74;98797.81;5009074;28;20517;-84
2022/02/21 07:46:23;;;;;;;7.78;2.08;;;;;;;2.70;82.99;98793.47;5008249;28;20634;-84
2022/02/21 07:48:50;;;;;;;7.97;1.63;;;;;;;2.83;82.70;98788.22;5011785;28;20603;-84
2022/02/21 07:51:16;;;;;;;9.48;2.33;;;;;;;2.95;80.67;98809.66;5007048;28;20052;-84
2022/02/21 07:53:43;;;;;;;7.57;1.88;;;;;;;3.08;80.83;98812.16;5007546;28;20094;-84
2022/02/21 07:56:09;;;;;;;2.30;1.23;;;;;;;3.15;79.56;98795.69;5009515;28;20052;-85
2022/02/21 07:58:36;;;;;;;4.63;1.15;;;;;;;3.22;79.67;98796.50;5008149;28;20392;-84
2022/02/21 08:01:02;;;;;;;10.82;1.65;;;;;;;3.28;79.35;98811.97;5004297;28;20976;-85
2022/02/21 08:03:29;;;;;;;7.85;1.52;;;;;;;3.35;79.33;98792.94;5020612;28;20056;-85
2022/02/21 08:05:56;;;;;;;12.63;1.30;;;;;;;3.38;79.42;98805.00;5008314;28;20049;-84
2022/02/21 08:08:23;;;;;;;9.90;1.52;;;;;;;3.38;79.69;98803.25;5007142;28;20067;-85
2022/02/21 08:10:49;;;;;;;10.32;2.05;;;;;;;3.42;79.49;98807.50;5007933;28;20064;-84
2022/02/21 08:13:19;;;;;;;11.82;3.05;;;;;;;3.46;77.44;98774.72;5016602;28;20068;-84
2022/02/21 08:15:45;;;;;;;3.95;1.63;;;;;;;3.45;77.71;98802.31;5024003;28;20066;-84
2022/02/21 08:18:12;;;;;;;6.60;1.20;;;;;;;3.51;76.75;98805.69;5024522;28;20096;-85
2022/02/21 08:20:38;;;;;;;7.35;1.55;;;;;;;3.56;76.63;98815.16;5001716;28;20148;-84
2022/02/21 08:23:05;;;;;;;6.93;1.70;;;;;;;3.50;76.86;98794.50;5004977;28;20059;-84
2022/02/21 08:25:31;;;;;;;11.05;1.92;;;;;;;3.48;77.65;98794.53;4999995;28;20059;-84
2022/02/21 08:27:58;;;;;;;7.25;1.63;;;;;;;3.58;77.24;98808.22;5005420;28;20045;-85
2022/02/21 08:30:25;;;;;;;8.63;2.95;;;;;;;3.56;76.68;98797.03;5005129;28;20057;-84
2022/02/21 08:32:52;;;;;;;6.82;1.80;;;;;;;3.57;76.58;98801.34;5018112;28;20530;-84
2022/02/21 08:35:20;;;;;;;7.85;2.42;;;;;;;3.72;75.24;98786.53;5012814;28;20059;-85
2022/02/21 08:37:47;;;;;;;5.38;1.50;;;;;;;3.95;74.57;98813.00;5024210;28;22750;-85
2022/02/21 08:40:18;;;;;;;14.00;2.67;;;;;;;4.07;73.94;98809.41;5016863;28;20044;-86
2022/02/21 08:42:45;;;;;;;13.07;2.42;;;;;;;4.03;74.37;98807.72;5022767;28;20056;-86
2022/02/21 08:45:13;;;;;;;7.25;1.67;;;;;;;3.97;73.85;98800.03;5003916;28;20501;-86
2022/02/21 08:47:43;;;;;;;12.07;3.00;;;;;;;4.01;74.33;98803.44;5008338;28;22609;-85
2022/02/21 08:50:11;;;;;;;11.07;1.65;;;;;;;4.11;74.30;98808.47;5024414;28;20956;-86
2022/02/21 08:52:41;;;;;;;13.60;2.13;;;;;;;4.25;74.14;98816.09;5016881;28;20044;-86
2022/02/21 08:55:10;;;;;;;3.97;1.80;;;;;;;4.30;73.85;98809.13;5011112;28;20053;-86
2022/02/21 08:57:38;;;;;;;10.55;2.58;;;;;;;4.35;73.76;98814.22;5020782;28;20847;-86
2022/02/21 09:00:09;;;;;;;9.73;1.75;;;;;;;4.44;73.16;98811.50;5027641;28;20052;-85
2022/02/21 09:02:36;;;;;;;5.40;1.50;;;;;;;4.40;72.02;98809.00;5033116;28;20054;-86
2022/02/21 09:05:03;;;;;;;9.40;2.30;;;;;;;4.32;72.19;98829.81;5010519;28;20057;-85
2022/02/21 09:07:30;;;;;;;10.10;3.85;;;;;;;4.40;72.14;98788.25;5016630;28;20442;-84
2022/02/21 09:09:58;;;;;;;12.68;2.22;;;;;;;4.38;71.61;98746.84;5029588;28;20140;-86
2022/02/21 09:12:25;;;;;;;5.57;1.55;;;;;;;4.41;71.47;98815.88;5019489;28;20480;-85
2022/02/21 09:14:52;;;;;;;6.28;1.95;;;;;;;4.46;72.50;98817.53;5020550;28;20414;-87
2022/02/21 09:17:19;;;;;;;10.90;1.50;;;;;;;4.61;71.94;98818.19;5001088;28;20546;-86
2022/02/21 09:19:46;;;;;;;11.18;2.25;;;;;;;4.54;71.09;98827.78;5026235;28;20045;-86
2022/02/21 09:22:13;;;;;;;15.23;2.85;;;;;;;4.63;71.14;98824.22;5025399;28;20059;-86
2022/02/21 09:24:40;;;;;;;12.32;1.83;;;;;;;4.64;71.06;98816.41;5013903;28;20048;-86
2022/02/21 09:27:07;;;;;;;12.15;2.33;;;;;;;4.68;70.77;98826.72;5026215;28;20491;-86
2022/02/21 09:29:35;;;;;;;9.55;1.80;;;;;;;4.71;70.21;98816.34;5023921;28;20831;-86
2022/02/21 09:32:02;;;;;;;5.50;1.83;;;;;;;4.77;70.22;98829.19;5013471;28;20816;-85
2022/02/21 09:34:28;;;;;;;8.55;2.13;;;;;;;4.76;69.04;98825.75;5013521;28;20048;-86
2022/02/21 09:36:55;;;;;;;11.63;2.65;;;;;;;4.79;70.03;98837.81;5023338;28;20044;-86
2022/02/21 09:39:21;;;;;;;8.68;1.88;;;;;;;4.84;68.45;98810.09;5013387;28;20410;-85
2022/02/21 09:41:50;;;;;;;5.82;1.98;;;;;;;4.97;68.97;98823.72;5015906;28;20064;-86
2022/02/21 09:44:17;;;;;;;13.98;1.90;;;;;;;5.07;68.48;98824.41;5009242;28;20415;-86
2022/02/21 09:46:49;;;;;;;8.77;1.67;;;;;;;5.06;68.08;98822.69;5006197;28;20064;-85
2022/02/21 09:49:20;;;;;;;10.48;1.67;;;;;;;5.17;68.96;98851.91;5020010;28;20053;-85
2022/02/21 09:51:47;;;;;;;10.77;2.80;;;;;;;5.19;68.30;98820.75;5008373;28;20049;-85
2022/02/21 09:54:15;;;;;;;10.48;2.20;;;;;;;5.24;67.99;98837.97;5013918;28;20056;-86
2022/02/21 09:56:43;;;;;;;7.80;2.00;;;;;;;5.22;67.80;98844.91;5019090;28;20037;-85
2022/02/21 09:59:11;;;;;;;9.07;2.08;;;;;;;5.36;66.35;98823.06;5026992;28;20055;-87
2022/02/21 10:01:38;;;;;;;6.60;1.58;;;;;;;5.46;67.23;98835.00;5017240;28;20048;-86
2022/02/21 10:04:05;;;;;;;18.88;3.30;;;;;;;5.41;66.25;98813.47;5021132;28;20044;-86
2022/02/21 10:06:33;;;;;;;5.07;2.45;;;;;;;5.34;66.01;98854.22;5010175;28;20052;-86
2022/02/21 10:09:12;;;;;;;7.40;2.13;;;;;;;5.24;66.36;98825.00;5021492;28;20087;-86
2022/02/21 10:11:48;;;;;;;10.27;2.20;;;;;;;5.34;66.05;98819.66;5022533;28;20111;-86
2022/02/21 10:14:23;;;;;;;4.78;1.70;;;;;;;5.22;66.70;98826.75;5009517;28;20076;-85
2022/02/21 10:16:56;;;;;;;6.28;2.03;;;;;;;5.17;67.00;98827.72;5022783;28;20179;-86
2022/02/21 10:19:38;;;;;;;6.38;2.33;;;;;;;5.24;66.47;98835.38;5025288;28;20048;-86
2022/02/21 10:22:10;;;;;;;10.60;2.85;;;;;;;5.24;66.67;98827.59;5018462;28;20048;-86
2022/02/21 10:24:49;;;;;;;6.50;1.65;;;;;;;5.28;65.65;98834.44;5028934;23;20054;-86
2022/02/21 10:27:23;;;;;;;11.40;3.42;;;;;;;5.25;65.97;98844.00;4969401;28;20053;-86
2022/02/21 10:29:54;;;;;;;;;;;;;;;5.18;65.96;98835.47;4961368;28;20125;-86
2022/02/21 10:32:39;;;;;;;9.32;2.20;;;;;;;5.14;65.79;98800.94;4958165;28;19995;-84
2022/02/21 10:38:05;;;;;;;6.50;1.58;;;;;;;5.01;66.22;98840.94;4949200;28;20046;-86
2022/02/21 10:40:38;;;;;;;6.50;1.92;;;;;;;5.02;66.35;98834.88;4962226;28;20050;-83
2022/02/21 10:43:09;;;;;;;5.17;3.20;;;;;;;5.07;66.50;98830.47;4938200;28;20053;-85
2022/02/21 10:45:48;;;;;;;13.50;3.25;;;;;;;5.00;66.11;98813.28;4966059;28;20288;-85
2022/02/21 10:48:20;;;;;;;5.88;2.33;;;;;;;4.99;66.11;98826.28;4957975;28;20045;-85
2022/02/21 10:51:03;;;;;;;6.78;2.17;;;;;;;4.87;66.80;98833.34;4958932;28;20143;-87
2022/02/21 10:53:49;;;;;;;8.93;2.67;;;;;;;4.88;66.74;98834.22;4960150;28;20053;-84
2022/02/21 10:56:19;;;;;;;11.43;2.63;;;;;;;4.87;66.83;98824.72;4953256;28;20733;-84
2022/02/21 10:58:46;;;;;;;10.75;2.50;;;;;;;4.84;66.98;98827.34;4955622;28;20073;-84
2022/02/21 11:01:13;;;;;;;9.13;2.17;;;;;;;4.87;66.38;98802.25;4929663;28;20074;-86
2022/02/21 11:03:41;;;;;;;10.68;2.22;;;;;;;4.85;66.84;98839.44;4950682;28;20041;-86
2022/02/21 11:06:08;;;;;;;10.48;4.10;;;;;;;4.82;67.29;98837.75;4950705;28;20583;-87
2022/02/21 11:08:40;;;;;;;7.25;2.00;;;;;;;4.81;66.80;98817.91;4969110;28;20048;-85
2022/02/21 11:11:11;;;;;;;5.03;2.40;;;;;;;4.95;66.62;98820.28;4949916;28;20862;-86
2022/02/21 11:13:38;;;;;;;7.43;2.15;;;;;;;5.16;65.37;98813.03;4959819;28;20618;-86
2022/02/21 11:16:17;;;;;;;7.20;1.90;;;;;;;5.25;64.86;98800.78;4968784;28;20061;-86
2022/02/21 11:19:15;;;;;;;10.23;2.22;;;;;;;5.31;64.71;98810.19;4950912;28;20114;-87
2022/02/21 11:21:44;;;;;;;7.22;1.90;;;;;;;5.41;64.25;98779.72;4949660;28;20623;-87
2022/02/21 11:24:24;;;;;;;8.55;1.90;;;;;;;5.49;64.70;98790.84;4972158;28;20058;-89
2022/02/21 11:30:22;;;;;;;7.47;2.20;;;;;;;5.33;66.47;98799.78;4959541;28;20057;-90
2022/02/21 11:33:13;;;;;;;12.18;2.63;;;;;;;5.22;67.78;98753.28;4935690;28;20893;-90
2022/02/21 11:36:15;;;;;;;8.02;1.80;;;;;;;5.13;68.82;98778.47;4971743;28;21719;-87
2022/02/21 11:38:42;;;;;;;7.88;2.17;;;;;;;5.03;70.18;98795.09;4989267;28;20057;-90
2022/02/21 11:41:15;;;;;;;5.07;2.20;;;;;;;5.03;70.58;98784.72;4954561;28;20078;-87
2022/02/21 11:43:49;;;;;;;8.60;2.72;;;;;;;5.01;71.31;98790.81;4966568;28;20096;-87
2022/02/21 11:46:25;;;;;;;3.67;1.65;;;;;;;4.86;73.42;98792.75;4947129;28;20053;-89